Time;durP1;ratioP1;P1;durP2;ratioP2;P2;SDS_P1;SDS_P2;PMS_P1;PMS_P2;Temp;Humidity;BMP_temperature;BMP_pressure;BME280_temperature;BME280_humidity;BME280_pressure;Samples;Min_cycle;Max_cycle;Signal;HPM_P1;HPM_P2
2023/06/01 00:01:12;;;;;;;16.20;5.45;;;;;;;14.15;65.97;102400.91;7392083;19;20022;-54
2023/06/01 00:03:39;;;;;;;11.82;4.60;;;;;;;14.10;65.97;102395.00;7393671;19;20018;-53
2023/06/01 00:06:07;;;;;;;13.50;5.60;;;;;;;14.15;66.09;102395.56;7392473;19;20021;-49
2023/06/01 00:08:35;;;;;;;13.25;5.13;;;;;;;14.24;65.68;102388.81;7393496;19;20026;-50
2023/06/01 00:11:02;;;;;;;13.40;5.15;;;;;;;14.17;66.05;102389.31;7393231;19;20033;-50
2023/06/01 00:13:30;;;;;;;12.57;4.90;;;;;;;14.09;66.45;102389.78;7391801;19;20018;-51
2023/06/01 00:15:57;;;;;;;14.13;5.10;;;;;;;14.09;66.52;102393.31;7390513;19;20030;-54
2023/06/01 00:18:27;;;;;;;13.48;5.00;;;;;;;14.13;66.58;102389.50;7392717;19;20019;-57
2023/06/01 00:20:54;;;;;;;12.65;4.75;;;;;;;14.13;66.68;102384.16;7391727;19;20029;-57
2023/06/01 00:23:21;;;;;;;12.02;4.97;;;;;;;14.19;66.65;102392.72;7393733;19;20018;-58
2023/06/01 00:25:49;;;;;;;16.55;5.30;;;;;;;14.22;66.67;102388.06;7388970;19;20042;-59
2023/06/01 00:28:16;;;;;;;12.48;4.70;;;;;;;14.18;67.22;102393.69;7390672;19;20493;-58
2023/06/01 00:30:43;;;;;;;14.48;5.10;;;;;;;14.05;68.01;102393.59;7391540;19;20026;-58
2023/06/01 00:33:10;;;;;;;14.55;5.22;;;;;;;14.05;68.17;102389.13;7391920;19;20014;-59
2023/06/01 00:35:38;;;;;;;12.98;4.93;;;;;;;14.12;67.93;102384.28;7392332;19;20018;-59
2023/06/01 00:38:06;;;;;;;16.08;5.03;;;;;;;14.07;68.14;102379.22;7392598;19;20498;-59
2023/06/01 00:40:34;;;;;;;14.20;5.05;;;;;;;14.03;68.50;102382.16;7392149;19;20022;-57
2023/06/01 00:43:01;;;;;;;14.27;4.93;;;;;;;14.03;68.58;102377.69;7392691;19;20019;-58
2023/06/01 00:45:29;;;;;;;16.15;5.82;;;;;;;13.99;68.89;102375.31;7392294;19;20017;-58
2023/06/01 00:47:57;;;;;;;15.10;5.65;;;;;;;14.01;68.79;102376.09;7390777;19;20019;-58
2023/06/01 00:50:24;;;;;;;13.68;5.47;;;;;;;14.06;68.74;102374.84;7391099;19;20022;-58
2023/06/01 00:52:53;;;;;;;12.75;5.68;;;;;;;14.01;69.17;102378.75;7388972;19;20054;-57
2023/06/01 00:55:21;;;;;;;12.52;5.80;;;;;;;14.02;69.26;102373.31;7392114;19;20042;-56
2023/06/01 00:57:50;;;;;;;14.52;6.43;;;;;;;13.99;69.23;102383.31;7391069;19;20030;-58
2023/06/01 01:00:18;;;;;;;12.85;5.35;;;;;;;14.04;69.20;102375.88;7391162;19;20053;-58
2023/06/01 01:02:48;;;;;;;14.38;6.47;;;;;;;14.01;69.48;102373.44;7391844;19;20014;-57
2023/06/01 01:05:16;;;;;;;14.85;5.65;;;;;;;14.03;69.58;102374.19;7390160;19;20014;-58
2023/06/01 01:08:10;;;;;;;15.07;6.07;;;;;;;14.01;69.55;102379.59;7390121;19;20038;-58
2023/06/01 01:10:59;;;;;;;15.00;6.63;;;;;;;14.01;70.00;102368.94;7391607;19;20047;-58
2023/06/01 01:13:44;;;;;;;14.38;6.22;;;;;;;13.96;70.28;102384.34;7389439;19;20011;-58
2023/06/01 01:16:27;;;;;;;13.98;5.68;;;;;;;13.88;70.46;102376.81;7388753;19;20149;-58
2023/06/01 01:19:12;;;;;;;11.43;5.73;;;;;;;13.90;70.21;102371.44;7391439;19;20458;-58
2023/06/01 01:21:50;;;;;;;12.10;5.00;;;;;;;13.82;70.23;102369.22;7389930;19;20827;-58
2023/06/01 01:24:43;;;;;;;11.93;5.00;;;;;;;13.98;69.77;102361.16;7389692;19;20023;-58
2023/06/01 01:27:29;;;;;;;13.52;4.90;;;;;;;14.02;69.66;102367.16;7390606;19;20039;-58
2023/06/01 01:30:05;;;;;;;14.40;5.43;;;;;;;14.01;69.97;102366.28;7391386;19;20015;-58
2023/06/01 01:32:35;;;;;;;14.07;4.78;;;;;;;13.89;70.27;102357.25;7389949;19;20019;-58
2023/06/01 01:35:05;;;;;;;11.00;3.75;;;;;;;13.85;70.40;102362.84;7391139;19;20046;-58
2023/06/01 01:37:33;;;;;;;11.95;3.80;;;;;;;13.88;69.92;102360.84;7390596;19;20023;-57
2023/06/01 01:40:00;;;;;;;12.48;4.47;;;;;;;13.95;69.75;102357.81;7391214;19;20030;-57
2023/06/01 01:42:28;;;;;;;11.43;3.50;;;;;;;13.94;69.75;102359.63;7390839;19;20023;-57
2023/06/01 01:44:55;;;;;;;9.98;3.60;;;;;;;13.84;69.88;102361.13;7388530;19;20105;-57
2023/06/01 01:47:58;;;;;;;9.30;3.13;;;;;;;13.83;69.75;102359.44;7389646;19;20022;-58
2023/06/01 01:50:30;;;;;;;10.95;3.47;;;;;;;13.85;69.67;102354.84;7387545;19;20038;-58
2023/06/01 01:52:58;;;;;;;10.98;3.70;;;;;;;13.95;69.29;102356.00;7389999;19;20096;-58
2023/06/01 01:55:26;;;;;;;11.50;3.45;;;;;;;13.92;69.27;102356.19;7389471;19;20015;-58
2023/06/01 01:57:56;;;;;;;10.18;3.63;;;;;;;13.87;69.34;102358.28;7389155;19;20097;-58
2023/06/01 02:00:27;;;;;;;9.85;4.05;;;;;;;13.86;69.18;102351.25;7390744;19;20027;-54
2023/06/01 02:02:54;;;;;;;12.23;4.05;;;;;;;13.83;69.00;102344.31;7390116;19;20050;-53
2023/06/01 02:05:22;;;;;;;9.98;3.78;;;;;;;13.78;68.88;102341.09;7388271;19;20031;-54
2023/06/01 02:07:50;;;;;;;12.15;4.57;;;;;;;13.78;68.98;102346.41;7390095;19;20018;-55
2023/06/01 02:10:17;;;;;;;10.13;3.90;;;;;;;13.84;68.88;102350.47;7390366;19;20027;-55
2023/06/01 02:12:44;;;;;;;13.10;3.72;;;;;;;13.87;68.86;102343.16;7387811;19;20019;-54
2023/06/01 02:15:11;;;;;;;13.18;3.65;;;;;;;13.77;68.90;102347.34;7390150;19;20050;-54
2023/06/01 02:17:40;;;;;;;11.73;3.65;;;;;;;13.72;68.88;102344.13;7390413;19;20010;-53
2023/06/01 02:20:10;;;;;;;13.15;3.50;;;;;;;13.76;68.72;102339.47;7390439;19;20014;-54
2023/06/01 02:22:38;;;;;;;10.30;3.53;;;;;;;13.81;68.72;102337.34;7389619;19;20052;-54
2023/06/01 02:25:05;;;;;;;10.70;4.10;;;;;;;13.88;68.56;102338.69;7389142;19;20022;-54
2023/06/01 02:27:33;;;;;;;13.02;3.60;;;;;;;13.88;68.63;102334.22;7390189;19;20018;-54
2023/06/01 02:30:00;;;;;;;10.88;3.55;;;;;;;13.93;68.32;102331.28;7388639;19;20022;-54
2023/06/01 02:32:30;;;;;;;12.77;3.80;;;;;;;13.94;68.63;102326.81;7387215;19;20082;-54
2023/06/01 02:34:57;;;;;;;10.80;3.70;;;;;;;13.83;69.15;102333.66;7388962;19;20011;-54
2023/06/01 02:37:25;;;;;;;10.35;3.60;;;;;;;13.85;69.04;102330.88;7387828;19;20018;-55
2023/06/01 02:39:52;;;;;;;12.70;3.60;;;;;;;13.86;69.01;102329.97;7396057;19;20043;-52
2023/06/01 02:42:19;;;;;;;11.15;3.40;;;;;;;13.79;69.06;102332.13;7395018;19;20178;-53
2023/06/01 02:44:46;;;;;;;12.85;3.20;;;;;;;13.84;68.93;102323.84;7396265;19;20019;-51
2023/06/01 02:47:13;;;;;;;9.60;2.70;;;;;;;13.81;68.75;102324.03;7397055;19;20014;-48
2023/06/01 02:49:41;;;;;;;11.95;3.35;;;;;;;13.87;68.50;102332.50;7396395;19;20023;-53
2023/06/01 02:52:08;;;;;;;11.43;3.67;;;;;;;13.84;68.74;102330.03;7394227;19;20022;-53
2023/06/01 02:54:36;;;;;;;12.30;3.40;;;;;;;13.87;68.74;102321.00;7391904;19;20506;-49
2023/06/01 02:57:03;;;;;;;10.38;3.47;;;;;;;13.88;68.68;102322.72;7391693;19;20029;-49
2023/06/01 02:59:30;;;;;;;12.20;3.45;;;;;;;13.84;68.78;102321.19;7395374;19;20549;-53
2023/06/01 03:01:58;;;;;;;13.23;3.72;;;;;;;13.78;69.24;102324.25;7393488;19;20022;-53
2023/06/01 03:04:28;;;;;;;13.18;3.50;;;;;;;13.76;69.40;102337.66;7394250;19;20022;-50
2023/06/01 03:07:01;;;;;;;12.85;4.00;;;;;;;13.72;69.30;102325.47;7393796;19;20518;-50
2023/06/01 03:09:28;;;;;;;13.30;4.18;;;;;;;13.72;68.81;102327.28;7395754;19;20027;-53
2023/06/01 03:11:55;;;;;;;11.52;3.92;;;;;;;13.83;68.07;102325.66;7393142;19;20035;-54
2023/06/01 03:14:22;;;;;;;12.93;4.03;;;;;;;13.82;67.97;102321.31;7393144;19;20035;-52
2023/06/01 03:16:50;;;;;;;14.50;3.80;;;;;;;13.79;67.83;102329.47;7393085;19;20074;-53
2023/06/01 03:19:17;;;;;;;14.23;4.85;;;;;;;13.77;67.91;102325.19;7394803;19;20124;-58
2023/06/01 03:21:46;;;;;;;13.68;4.72;;;;;;;13.84;67.33;102319.38;7394962;19;20020;-58
2023/06/01 03:24:17;;;;;;;14.02;4.30;;;;;;;13.82;67.63;102318.63;7394483;19;20027;-56
2023/06/01 03:26:44;;;;;;;14.85;4.28;;;;;;;13.79;67.38;102312.66;7394580;19;20126;-65
2023/06/01 03:29:11;;;;;;;16.95;4.60;;;;;;;13.72;67.69;102309.50;7395174;19;20026;-62
2023/06/01 03:31:39;;;;;;;11.95;4.07;;;;;;;13.75;67.54;102319.13;7393994;19;20018;-62
2023/06/01 03:34:06;;;;;;;11.82;4.18;;;;;;;13.76;67.50;102318.16;7392594;19;20687;-62
2023/06/01 03:36:36;;;;;;;15.15;4.43;;;;;;;13.75;67.37;102314.63;7391211;19;20082;-63
2023/06/01 03:39:08;;;;;;;12.27;4.15;;;;;;;13.75;67.43;102317.31;7395110;19;20327;-65
2023/06/01 03:41:35;;;;;;;14.68;4.65;;;;;;;13.78;67.15;102322.44;7394330;19;20011;-63
2023/06/01 03:44:02;;;;;;;11.57;4.07;;;;;;;13.72;67.30;102320.16;7393979;19;20054;-63
2023/06/01 03:46:30;;;;;;;14.30;4.38;;;;;;;13.68;67.25;102320.44;7393526;19;20414;-64
2023/06/01 03:48:57;;;;;;;13.57;4.57;;;;;;;13.71;67.06;102309.59;7394159;19;20038;-61
2023/06/01 03:51:24;;;;;;;12.85;4.45;;;;;;;13.73;66.97;102319.19;7393256;19;20086;-62
2023/06/01 03:53:51;;;;;;;14.75;4.68;;;;;;;13.69;67.10;102300.84;7392478;19;20015;-62
2023/06/01 03:56:19;;;;;;;14.13;5.15;;;;;;;13.71;66.86;102307.78;7392866;19;20032;-61
2023/06/01 03:58:46;;;;;;;14.32;4.10;;;;;;;13.63;67.31;102304.75;7394634;19;20405;-62
2023/06/01 04:01:16;;;;;;;12.18;4.65;;;;;;;13.62;67.33;102301.25;7392528;19;20014;-61
2023/06/01 04:03:44;;;;;;;14.98;4.78;;;;;;;13.65;67.17;102301.03;7392203;19;20018;-63
2023/06/01 04:06:17;;;;;;;13.18;4.35;;;;;;;13.63;67.63;102304.75;7392799;19;20022;-63
2023/06/01 04:08:48;;;;;;;12.15;4.00;;;;;;;13.58;67.70;102297.06;7393477;19;20077;-63
2023/06/01 04:11:16;;;;;;;13.88;3.80;;;;;;;13.62;67.79;102303.03;7392713;19;20385;-63
2023/06/01 04:13:44;;;;;;;14.57;4.15;;;;;;;13.63;67.62;102302.94;7391523;19;20006;-63
2023/06/01 04:16:11;;;;;;;11.52;4.05;;;;;;;13.57;67.96;102298.00;7390905;19;20025;-63
2023/06/01 04:18:39;;;;;;;8.93;3.30;;;;;;;13.57;67.88;102303.31;7393641;19;20337;-63
2023/06/01 04:21:06;;;;;;;11.65;3.42;;;;;;;13.60;67.88;102296.97;7392690;19;20026;-63
2023/06/01 04:23:34;;;;;;;11.82;3.63;;;;;;;13.45;68.40;102298.75;7392746;19;20022;-63
2023/06/01 04:26:02;;;;;;;10.82;3.28;;;;;;;13.50;68.43;102301.13;7392421;19;20041;-63
2023/06/01 04:28:29;;;;;;;12.13;4.25;;;;;;;13.59;68.30;102297.91;7392208;19;20086;-63
2023/06/01 04:30:57;;;;;;;12.77;4.05;;;;;;;13.57;68.49;102300.66;7390028;19;20479;-63
2023/06/01 04:33:24;;;;;;;13.27;4.68;;;;;;;13.59;68.30;102301.44;7390733;19;20086;-62
2023/06/01 04:35:54;;;;;;;10.38;3.83;;;;;;;13.65;68.45;102297.50;7389835;19;20393;-63
2023/06/01 04:38:24;;;;;;;12.00;3.58;;;;;;;13.52;68.88;102300.09;7391482;19;20466;-62
2023/06/01 04:40:55;;;;;;;9.00;3.85;;;;;;;13.50;69.06;102294.00;7392231;19;20077;-62
2023/06/01 04:43:23;;;;;;;12.93;3.75;;;;;;;13.58;69.09;102289.06;7392965;19;20014;-63
2023/06/01 04:45:51;;;;;;;11.88;4.00;;;;;;;13.67;68.93;102298.28;7391617;19;20219;-63
2023/06/01 04:48:20;;;;;;;12.15;3.72;;;;;;;13.64;69.08;102302.00;7390740;19;20018;-63
2023/06/01 04:50:47;;;;;;;9.77;3.15;;;;;;;13.68;69.29;102294.66;7391552;19;20054;-64
2023/06/01 04:53:14;;;;;;;9.82;3.75;;;;;;;13.72;69.32;102295.34;7392412;19;20078;-63
2023/06/01 04:55:44;;;;;;;11.90;3.95;;;;;;;13.74;69.44;102294.31;7391754;19;20090;-63
2023/06/01 04:58:11;;;;;;;14.38;4.07;;;;;;;13.69;69.49;102300.84;7392522;19;20058;-64
2023/06/01 05:00:39;;;;;;;11.98;3.85;;;;;;;13.70;69.74;102289.22;7390925;19;20094;-64
2023/06/01 05:03:07;;;;;;;12.38;4.32;;;;;;;13.79;69.42;102292.19;7393660;19;20014;-70
2023/06/01 05:05:34;;;;;;;12.15;3.88;;;;;;;13.69;69.99;102283.06;7394668;19;20010;-69
2023/06/01 05:08:02;;;;;;;12.02;4.15;;;;;;;13.69;69.99;102280.41;7396486;19;20501;-70
2023/06/01 05:10:29;;;;;;;9.45;3.72;;;;;;;13.65;70.27;102277.06;7394078;19;20010;-70
2023/06/01 05:12:56;;;;;;;8.05;3.63;;;;;;;13.65;70.57;102277.06;7392186;19;20017;-71
2023/06/01 05:15:24;;;;;;;10.52;3.53;;;;;;;13.74;70.63;102274.81;7388783;19;20038;-74
2023/06/01 05:17:51;;;;;;;13.20;3.92;;;;;;;13.74;70.79;102277.47;7391861;19;20022;-74
2023/06/01 05:20:19;;;;;;;9.80;3.67;;;;;;;13.78;71.26;102276.31;7391621;19;20022;-73
2023/06/01 05:22:47;;;;;;;12.50;3.80;;;;;;;13.79;71.24;102272.72;7391086;19;20058;-74
2023/06/01 05:25:14;;;;;;;12.32;3.65;;;;;;;13.81;71.32;102269.00;7389033;19;20534;-73
2023/06/01 05:27:41;;;;;;;12.48;3.92;;;;;;;13.78;71.37;102266.53;7390880;19;20092;-74
2023/06/01 05:30:09;;;;;;;10.70;3.72;;;;;;;13.73;72.09;102265.09;7391163;19;20014;-63
2023/06/01 05:32:36;;;;;;;10.48;3.50;;;;;;;13.72;72.09;102266.06;7388563;19;20085;-62
2023/06/01 05:35:04;;;;;;;10.90;3.80;;;;;;;13.74;72.05;102265.00;7389729;19;20015;-63
2023/06/01 05:37:31;;;;;;;10.38;3.83;;;;;;;13.76;72.21;102262.25;7391492;19;20035;-62
2023/06/01 05:39:58;;;;;;;14.10;3.80;;;;;;;13.84;71.96;102267.94;7389001;19;20014;-62
2023/06/01 05:42:25;;;;;;;10.27;3.70;;;;;;;13.76;72.30;102270.22;7388569;19;20018;-62
2023/06/01 05:44:53;;;;;;;9.68;3.47;;;;;;;13.70;72.60;102270.59;7390930;19;20019;-63
2023/06/01 05:47:20;;;;;;;8.10;3.30;;;;;;;13.82;72.15;102270.72;7388664;19;20085;-62
2023/06/01 05:49:50;;;;;;;7.63;3.50;;;;;;;13.82;72.15;102273.38;7390376;19;20019;-62
2023/06/01 05:52:18;;;;;;;8.38;3.47;;;;;;;13.77;72.10;102278.09;7389837;19;20130;-62
2023/06/01 05:54:45;;;;;;;10.07;3.25;;;;;;;13.81;72.08;102284.09;7388368;19;20078;-62
2023/06/01 05:57:12;;;;;;;11.82;3.47;;;;;;;13.74;72.21;102278.31;7388776;19;20380;-63
2023/06/01 05:59:39;;;;;;;10.52;3.60;;;;;;;13.72;72.27;102277.56;7389798;19;20026;-62
2023/06/01 06:02:06;;;;;;;9.70;3.35;;;;;;;13.85;72.05;102277.63;7389484;19;20042;-61
2023/06/01 06:04:33;;;;;;;10.40;3.40;;;;;;;13.88;71.85;102275.63;7390020;19;20026;-63
2023/06/01 06:07:01;;;;;;;7.97;3.35;;;;;;;13.85;71.82;102273.19;7388694;19;20019;-62
2023/06/01 06:09:28;;;;;;;11.82;4.05;;;;;;;13.77;72.26;102275.44;7389626;19;20058;-64
2023/06/01 06:11:55;;;;;;;10.60;3.53;;;;;;;13.84;72.01;102274.09;7387990;19;20486;-64
2023/06/01 06:14:22;;;;;;;10.55;3.40;;;;;;;13.75;72.21;102271.19;7393266;19;20018;-65
2023/06/01 06:16:50;;;;;;;10.45;3.78;;;;;;;13.76;72.14;102272.88;7395653;19;20015;-64
2023/06/01 06:19:17;;;;;;;11.40;4.05;;;;;;;13.78;72.32;102274.50;7396725;19;20035;-66
2023/06/01 06:21:44;;;;;;;11.10;3.22;;;;;;;13.80;71.71;102267.28;7397203;19;20018;-63
2023/06/01 06:24:11;;;;;;;10.73;3.10;;;;;;;13.85;71.39;102272.31;7397449;19;20391;-63
2023/06/01 06:26:39;;;;;;;8.05;2.70;;;;;;;13.83;71.34;102276.88;7394854;19;20086;-63
2023/06/01 06:29:06;;;;;;;9.45;3.50;;;;;;;13.86;70.75;102272.22;7396491;19;20047;-63
2023/06/01 06:31:33;;;;;;;11.02;3.65;;;;;;;13.88;70.46;102272.97;7395248;19;20031;-63
2023/06/01 06:34:01;;;;;;;11.73;3.80;;;;;;;13.87;70.55;102278.41;7396381;19;20018;-64
2023/06/01 06:36:28;;;;;;;8.70;3.15;;;;;;;13.95;70.14;102276.09;7395011;19;20017;-63
2023/06/01 06:38:55;;;;;;;8.95;3.00;;;;;;;14.04;69.63;102272.88;7394811;19;20019;-63
2023/06/01 06:41:23;;;;;;;11.05;3.67;;;;;;;14.05;69.54;102269.25;7393963;19;20027;-62
2023/06/01 06:43:50;;;;;;;10.75;3.40;;;;;;;13.96;69.89;102282.28;7396797;19;20051;-63
2023/06/01 06:46:17;;;;;;;12.63;3.40;;;;;;;13.99;69.60;102279.44;7394815;19;20392;-62
2023/06/01 06:48:44;;;;;;;9.55;2.95;;;;;;;13.96;69.52;102279.63;7396302;19;20456;-63
2023/06/01 06:51:11;;;;;;;10.07;3.00;;;;;;;13.83;69.98;102276.88;7394862;19;20026;-62
2023/06/01 06:53:38;;;;;;;11.57;3.40;;;;;;;13.86;69.78;102287.34;7395964;19;20033;-62
2023/06/01 06:56:05;;;;;;;12.35;3.88;;;;;;;13.90;69.96;102283.53;7394426;19;20018;-62
2023/06/01 06:58:33;;;;;;;11.50;3.83;;;;;;;14.00;69.65;102279.31;7396208;19;20100;-62
2023/06/01 07:01:04;;;;;;;12.50;3.60;;;;;;;13.96;69.77;102284.94;7394963;19;20018;-62
2023/06/01 07:03:32;;;;;;;12.95;3.47;;;;;;;13.86;69.98;102282.03;7395724;19;20019;-65
2023/06/01 07:05:59;;;;;;;14.63;3.60;;;;;;;13.92;69.85;102286.94;7394168;19;20039;-63
2023/06/01 07:08:27;;;;;;;11.07;3.58;;;;;;;14.06;69.72;102289.59;7395439;19;20026;-60
2023/06/01 07:10:55;;;;;;;9.48;3.00;;;;;;;14.15;69.59;102286.31;7393368;19;20041;-58
2023/06/01 07:13:23;;;;;;;8.70;2.85;;;;;;;14.10;69.92;102284.94;7395482;19;20015;-65
2023/06/01 07:15:50;;;;;;;11.55;3.22;;;;;;;14.15;69.78;102290.81;7392625;19;20011;-62
2023/06/01 07:18:17;;;;;;;11.00;3.03;;;;;;;14.14;69.78;102283.78;7394706;19;20014;-62
2023/06/01 07:20:45;;;;;;;9.48;3.30;;;;;;;14.06;69.37;102283.41;7392986;19;20100;-63
2023/06/01 07:23:12;;;;;;;8.60;3.20;;;;;;;14.07;69.31;102279.78;7393901;19;20022;-63
2023/06/01 07:25:39;;;;;;;9.57;2.88;;;;;;;14.01;69.61;102275.72;7391174;19;20369;-63
2023/06/01 07:28:07;;;;;;;7.90;3.22;;;;;;;14.06;69.67;102283.41;7394738;19;20010;-62
2023/06/01 07:30:35;;;;;;;8.55;3.25;;;;;;;14.01;69.83;102280.19;7394738;19;20022;-62
2023/06/01 07:33:05;;;;;;;10.77;3.20;;;;;;;14.00;70.13;102283.78;7395069;19;20033;-62
2023/06/01 07:35:33;;;;;;;7.40;3.05;;;;;;;14.09;70.05;102288.56;7393674;19;20043;-62
2023/06/01 07:38:02;;;;;;;10.50;3.15;;;;;;;14.13;69.88;102282.91;7394125;19;20042;-63
2023/06/01 07:40:30;;;;;;;10.73;3.28;;;;;;;14.04;69.38;102277.31;7394007;19;20035;-62
2023/06/01 07:42:57;;;;;;;7.28;2.85;;;;;;;14.12;69.00;102280.38;7394250;19;20043;-62
2023/06/01 07:45:24;;;;;;;10.35;3.10;;;;;;;14.15;68.72;102274.81;7393296;19;20086;-62
2023/06/01 07:47:53;;;;;;;10.02;3.05;;;;;;;14.17;68.29;102288.06;7394467;19;20055;-62
2023/06/01 07:50:21;;;;;;;9.63;3.17;;;;;;;14.24;67.75;102284.91;7394861;19;20045;-63
2023/06/01 07:52:50;;;;;;;7.20;2.75;;;;;;;14.08;67.66;102282.38;7393449;19;20459;-63
2023/06/01 07:55:17;;;;;;;12.02;3.40;;;;;;;14.18;67.04;102279.09;7392628;19;20035;-61
2023/06/01 07:57:44;;;;;;;8.23;3.00;;;;;;;14.23;66.67;102285.88;7393530;19;20470;-63
2023/06/01 08:00:12;;;;;;;9.40;3.08;;;;;;;14.19;66.92;102278.16;7393692;19;20180;-64
2023/06/01 08:02:39;;;;;;;9.13;3.47;;;;;;;14.20;66.82;102279.88;7393209;19;20389;-66
2023/06/01 08:05:07;;;;;;;8.27;3.25;;;;;;;14.23;66.66;102282.31;7393586;19;20011;-62
2023/06/01 08:07:35;;;;;;;8.70;3.25;;;;;;;14.20;66.89;102288.72;7393044;19;20074;-65
2023/06/01 08:10:03;;;;;;;10.18;3.38;;;;;;;14.31;66.66;102286.22;7393351;19;20032;-62
2023/06/01 08:12:30;;;;;;;11.57;3.50;;;;;;;14.30;66.73;102284.50;7393351;19;20030;-63
2023/06/01 08:14:58;;;;;;;8.60;3.15;;;;;;;14.37;66.70;102288.47;7392402;19;20027;-59
2023/06/01 08:17:26;;;;;;;11.02;3.50;;;;;;;14.37;66.53;102277.81;7391480;19;20055;-59
2023/06/01 08:19:53;;;;;;;12.32;3.90;;;;;;;14.35;66.54;102281.53;7393406;19;20022;-62
2023/06/01 08:22:23;;;;;;;10.65;3.58;;;;;;;14.30;66.66;102279.16;7393073;19;20089;-61
2023/06/01 08:24:51;;;;;;;10.52;3.45;;;;;;;14.39;66.61;102280.38;7391540;19;20018;-60
2023/06/01 08:27:23;;;;;;;11.20;3.83;;;;;;;14.36;66.39;102280.59;7390323;19;20542;-61
2023/06/01 08:29:52;;;;;;;11.82;3.60;;;;;;;14.41;66.22;102272.28;7393316;19;20100;-61
2023/06/01 08:32:22;;;;;;;12.27;3.78;;;;;;;14.45;66.08;102269.31;7390172;19;20010;-62
2023/06/01 08:34:49;;;;;;;8.85;3.42;;;;;;;14.53;65.58;102277.69;7391890;19;20014;-61
2023/06/01 08:37:16;;;;;;;12.82;3.60;;;;;;;14.70;65.07;102270.41;7387367;19;20503;-61
2023/06/01 08:39:43;;;;;;;8.27;3.25;;;;;;;14.73;64.69;102259.50;7391394;19;20495;-62
2023/06/01 08:42:21;;;;;;;11.60;3.83;;;;;;;14.73;64.68;102263.06;7392220;19;20026;-63
2023/06/01 08:44:52;;;;;;;10.60;3.20;;;;;;;14.68;64.81;102261.63;7393623;19;20022;-64
2023/06/01 08:47:23;;;;;;;9.73;3.58;;;;;;;14.81;64.50;102267.88;7390946;19;20018;-64
2023/06/01 08:49:52;;;;;;;7.20;2.80;;;;;;;14.79;64.57;102265.28;7392593;19;20019;-65
2023/06/01 08:52:22;;;;;;;10.18;2.95;;;;;;;14.76;64.70;102268.16;7389567;19;20451;-63
2023/06/01 08:54:50;;;;;;;9.77;3.17;;;;;;;14.76;64.80;102275.31;7391541;19;20353;-63
2023/06/01 08:57:17;;;;;;;8.88;3.10;;;;;;;14.70;64.77;102271.25;7390841;19;20069;-61
2023/06/01 08:59:45;;;;;;;7.65;3.20;;;;;;;14.61;65.11;102269.19;7390867;19;20082;-61
2023/06/01 09:02:13;;;;;;;11.50;2.95;;;;;;;14.62;64.89;102268.25;7395026;19;20018;-60
2023/06/01 09:04:44;;;;;;;10.55;3.30;;;;;;;14.54;65.44;102265.22;7390870;19;20019;-60
2023/06/01 09:07:13;;;;;;;8.32;2.92;;;;;;;14.61;65.54;102269.19;7388800;19;20023;-61
2023/06/01 09:09:40;;;;;;;7.70;2.70;;;;;;;14.59;65.64;102257.78;7390894;19;20485;-61
2023/06/01 09:12:34;;;;;;;10.10;3.10;;;;;;;14.71;65.74;102269.44;7390725;19;20074;-61
2023/06/01 09:15:12;;;;;;;9.50;3.30;;;;;;;14.65;66.48;102276.00;7390068;19;20018;-60
2023/06/01 09:17:40;;;;;;;8.18;3.03;;;;;;;14.63;66.72;102269.94;7391133;19;20019;-61
2023/06/01 09:20:13;;;;;;;10.38;2.95;;;;;;;14.71;66.27;102266.78;7391083;19;20070;-61
2023/06/01 09:22:45;;;;;;;9.95;2.97;;;;;;;14.72;65.13;102268.47;7390947;19;20022;-62
2023/06/01 09:25:13;;;;;;;7.47;2.58;;;;;;;14.65;65.10;102269.84;7390725;19;20086;-61
2023/06/01 09:27:52;;;;;;;8.73;2.83;;;;;;;14.76;64.87;102277.97;7391906;19;20437;-60
2023/06/01 09:30:21;;;;;;;8.32;2.70;;;;;;;14.73;64.78;102268.38;7390898;19;20018;-61
2023/06/01 09:32:50;;;;;;;10.98;2.92;;;;;;;14.79;64.28;102267.09;7390958;19;20370;-61
2023/06/01 09:35:37;;;;;;;6.95;2.63;;;;;;;14.82;63.63;102261.56;7390439;19;20027;-61
2023/06/01 09:38:06;;;;;;;10.65;2.88;;;;;;;14.66;64.25;102269.75;7391038;19;20487;-62
2023/06/01 09:40:34;;;;;;;9.75;2.75;;;;;;;14.68;64.21;102277.63;7392946;19;20511;-62
2023/06/01 09:43:02;;;;;;;10.73;2.55;;;;;;;14.69;64.06;102260.66;7393676;19;20007;-61
2023/06/01 09:45:32;;;;;;;8.63;2.17;;;;;;;14.80;63.97;102259.00;7389975;19;20525;-60
2023/06/01 09:48:17;;;;;;;8.57;2.63;;;;;;;15.00;63.08;102254.13;7391731;19;20038;-60
2023/06/01 09:50:45;;;;;;;8.63;2.40;;;;;;;15.05;63.22;102255.53;7388318;19;20042;-59
2023/06/01 09:53:12;;;;;;;8.82;2.85;;;;;;;15.03;62.42;102251.25;7389556;19;20006;-62
2023/06/01 09:56:08;;;;;;;8.27;2.85;;;;;;;15.06;61.42;102251.03;7389327;19;20047;-63
2023/06/01 09:58:39;;;;;;;8.55;2.63;;;;;;;14.96;62.11;102249.97;7387237;19;20029;-62
2023/06/01 10:01:08;;;;;;;10.10;3.10;;;;;;;15.02;61.98;102254.88;7389571;19;20436;-62
2023/06/01 10:03:41;;;;;;;7.80;2.30;;;;;;;15.05;61.87;102241.31;7389858;19;20017;-62
2023/06/01 10:06:14;;;;;;;9.00;2.42;;;;;;;15.01;62.09;102248.69;7388997;19;20498;-62
2023/06/01 10:08:42;;;;;;;11.27;2.55;;;;;;;15.14;61.58;102245.16;7387450;19;20021;-61
2023/06/01 10:11:09;;;;;;;9.38;2.38;;;;;;;15.28;60.86;102248.59;7388252;19;20018;-61
2023/06/01 10:13:37;;;;;;;7.50;2.45;;;;;;;15.39;60.35;102244.31;7389633;19;20019;-62
2023/06/01 10:16:04;;;;;;;9.20;2.53;;;;;;;15.36;60.11;102242.72;7387819;19;20039;-62
2023/06/01 10:18:32;;;;;;;10.65;2.78;;;;;;;15.41;60.12;102245.06;7389976;19;20037;-62
2023/06/01 10:21:02;;;;;;;9.82;2.80;;;;;;;15.44;60.05;102239.50;7387807;19;20022;-62
2023/06/01 10:23:30;;;;;;;10.48;3.40;;;;;;;15.50;59.77;102241.75;7389380;19;20015;-62
2023/06/01 10:26:05;;;;;;;11.95;3.38;;;;;;;15.45;59.31;102258.06;7388279;19;20475;-62
2023/06/01 10:28:35;;;;;;;11.95;3.38;;;;;;;15.48;59.34;102243.66;7389866;19;20051;-63
2023/06/01 10:31:38;;;;;;;14.77;3.28;;;;;;;15.60;58.54;102237.44;7388282;19;20037;-62
2023/06/01 10:34:07;;;;;;;10.35;3.30;;;;;;;15.58;58.64;102236.72;7389615;19;20018;-62
2023/06/01 10:36:52;;;;;;;10.15;3.17;;;;;;;15.53;58.55;102239.72;7386887;19;20089;-62
2023/06/01 10:39:30;;;;;;;11.30;3.30;;;;;;;15.53;58.72;102233.50;7389703;19;20018;-62
2023/06/01 10:42:18;;;;;;;10.18;3.30;;;;;;;15.59;58.29;102238.41;7386355;19;20019;-62
2023/06/01 10:44:47;;;;;;;10.13;3.38;;;;;;;15.58;58.57;102220.69;7387766;19;20022;-62
2023/06/01 10:47:20;;;;;;;13.02;3.20;;;;;;;15.69;58.24;102233.31;7386660;19;20383;-63
2023/06/01 10:49:47;;;;;;;9.98;3.08;;;;;;;15.79;57.72;102234.34;7388637;19;20014;-60
2023/06/01 10:52:35;;;;;;;10.85;3.15;;;;;;;15.84;56.93;102227.72;7385854;19;20094;-61
2023/06/01 10:55:05;;;;;;;11.07;3.33;;;;;;;15.82;57.17;102224.31;7386680;19;20081;-61
2023/06/01 10:57:34;;;;;;;10.15;2.85;;;;;;;15.84;57.16;102224.22;7387762;19;20078;-61
2023/06/01 11:00:26;;;;;;;10.90;3.03;;;;;;;15.78;57.09;102228.16;7392408;19;20039;-61
2023/06/01 11:02:57;;;;;;;10.80;3.35;;;;;;;15.67;57.82;102230.75;7393274;19;20043;-61
2023/06/01 11:05:47;;;;;;;10.95;3.15;;;;;;;15.69;57.54;102228.84;7395818;19;20462;-62
2023/06/01 11:08:24;;;;;;;14.02;3.20;;;;;;;15.72;57.76;102228.63;7394071;19;20010;-62
2023/06/01 11:10:51;;;;;;;11.82;3.55;;;;;;;15.70;57.75;102232.34;7394013;19;20026;-61
2023/06/01 11:13:19;;;;;;;12.98;3.25;;;;;;;15.58;58.31;102224.22;7393721;19;20018;-61
2023/06/01 11:16:18;;;;;;;12.55;2.90;;;;;;;15.57;57.93;102227.00;7392048;19;20437;-61
2023/06/01 11:18:57;;;;;;;11.95;2.95;;;;;;;15.50;58.66;102231.09;7395182;19;20086;-62
2023/06/01 11:21:27;;;;;;;11.68;2.92;;;;;;;15.37;59.24;102233.75;7393736;19;20025;-62
2023/06/01 11:23:59;;;;;;;10.25;3.63;;;;;;;15.41;59.50;102231.72;7393538;19;20019;-62
2023/06/01 11:26:40;;;;;;;11.13;3.15;;;;;;;15.42;59.54;102230.78;7392433;19;20026;-62
2023/06/01 11:29:11;;;;;;;11.00;3.33;;;;;;;15.53;59.22;102236.19;7395676;19;20023;-62
2023/06/01 11:31:45;;;;;;;9.82;3.20;;;;;;;15.69;58.15;102226.16;7394389;19;20050;-62